Time;durP1;ratioP1;P1;durP2;ratioP2;P2;SDS_P1;SDS_P2;PMS_P1;PMS_P2;Temp;Humidity;BMP_temperature;BMP_pressure;BME280_temperature;BME280_humidity;BME280_pressure;Samples;Min_cycle;Max_cycle;Signal;HPM_P1;HPM_P2
2021/10/03 00:02:08;;;;;;;5.97;2.70;;;16.50;99.90;;;;;;5052366;28;20531;-86
2021/10/03 00:04:36;;;;;;;3.78;2.60;;;16.50;99.90;;;;;;5052600;28;20111;-86
2021/10/03 00:07:03;;;;;;;5.45;3.20;;;16.50;99.90;;;;;;5052522;28;20025;-85
2021/10/03 00:09:30;;;;;;;5.82;3.00;;;16.40;99.90;;;;;;5051826;28;20444;-86
2021/10/03 00:11:56;;;;;;;5.63;2.83;;;16.40;99.90;;;;;;5052468;28;20049;-86
2021/10/03 00:14:23;;;;;;;4.25;2.70;;;16.40;99.90;;;;;;5052359;28;20021;-86
2021/10/03 00:16:52;;;;;;;5.55;2.58;;;16.30;99.90;;;;;;5052287;28;20021;-85
2021/10/03 00:19:19;;;;;;;5.32;2.80;;;16.30;99.90;;;;;;5051375;28;20047;-85
2021/10/03 00:21:44;;;;;;;6.05;2.53;;;16.30;99.90;;;;;;5052196;28;20021;-86
2021/10/03 00:24:12;;;;;;;6.65;2.55;;;16.40;99.90;;;;;;5052249;28;20025;-86
2021/10/03 00:26:39;;;;;;;4.38;2.33;;;16.40;99.90;;;;;;5052860;28;20025;-86
2021/10/03 00:29:05;;;;;;;4.57;2.20;;;16.50;99.90;;;;;;5052724;28;20036;-85
2021/10/03 00:31:31;;;;;;;3.17;2.17;;;16.40;99.90;;;;;;5051955;28;20108;-86
2021/10/03 00:33:56;;;;;;;6.03;1.90;;;16.50;99.90;;;;;;5053233;28;20060;-85
2021/10/03 00:36:22;;;;;;;5.15;2.03;;;16.50;99.90;;;;;;5053152;28;20021;-85
2021/10/03 00:38:48;;;;;;;4.22;2.15;;;16.60;99.90;;;;;;5051534;28;20039;-85
2021/10/03 00:41:14;;;;;;;3.53;1.92;;;16.50;99.90;;;;;;5053306;28;20025;-85
2021/10/03 00:43:41;;;;;;;3.35;1.90;;;16.60;99.90;;;;;;5051878;28;20036;-86
2021/10/03 00:46:06;;;;;;;6.00;1.92;;;16.60;99.90;;;;;;5051652;28;20058;-85
2021/10/03 00:48:32;;;;;;;3.58;1.73;;;16.60;99.90;;;;;;5051887;28;20024;-86
2021/10/03 00:50:58;;;;;;;3.78;1.70;;;16.60;99.90;;;;;;5051084;28;20021;-85
2021/10/03 00:53:27;;;;;;;2.53;1.70;;;16.60;99.90;;;;;;5051654;28;20529;-85
2021/10/03 00:55:53;;;;;;;4.88;1.92;;;16.70;99.90;;;;;;5051685;28;20573;-85
2021/10/03 00:58:19;;;;;;;3.72;1.70;;;16.70;99.90;;;;;;5051587;28;20116;-85
2021/10/03 01:00:45;;;;;;;4.43;1.73;;;16.70;99.90;;;;;;5051090;28;20428;-85
2021/10/03 01:03:11;;;;;;;2.15;1.50;;;16.80;99.90;;;;;;5051492;28;20036;-85
2021/10/03 01:05:37;;;;;;;3.95;1.60;;;16.80;99.90;;;;;;5051230;28;20029;-86
2021/10/03 01:08:04;;;;;;;4.88;1.80;;;16.80;99.90;;;;;;5051291;28;20068;-85
2021/10/03 01:10:30;;;;;;;4.00;1.90;;;16.80;99.90;;;;;;5052100;28;20115;-86
2021/10/03 01:13:08;;;;;;;3.80;1.80;;;16.80;99.90;;;;;;5051263;28;20541;-85
2021/10/03 01:15:38;;;;;;;3.75;1.95;;;16.80;99.90;;;;;;5051455;28;20028;-85
2021/10/03 01:18:05;;;;;;;3.00;1.55;;;16.90;99.90;;;;;;5051927;28;20482;-85
2021/10/03 01:20:32;;;;;;;2.72;1.58;;;16.90;99.90;;;;;;5051321;28;20632;-85
2021/10/03 01:23:03;;;;;;;5.88;2.28;;;16.90;99.90;;;;;;5052840;28;20437;-85
2021/10/03 01:25:32;;;;;;;2.85;1.70;;;16.90;99.90;;;;;;5052877;28;20025;-85
2021/10/03 01:27:59;;;;;;;2.95;1.60;;;17.00;99.90;;;;;;5051372;28;20029;-85
2021/10/03 01:30:25;;;;;;;3.25;1.50;;;17.00;99.90;;;;;;5051041;28;20033;-85
2021/10/03 01:32:51;;;;;;;3.33;1.52;;;17.00;99.90;;;;;;5051354;28;20025;-85
2021/10/03 01:35:19;;;;;;;4.35;1.80;;;17.10;99.90;;;;;;5051772;28;20283;-85
2021/10/03 01:37:45;;;;;;;3.17;1.60;;;17.20;99.90;;;;;;5050508;28;20440;-85
2021/10/03 01:40:11;;;;;;;4.32;1.67;;;17.20;99.90;;;;;;5052382;28;20029;-85
2021/10/03 01:42:39;;;;;;;2.40;1.40;;;17.20;99.90;;;;;;5052207;28;20116;-85
2021/10/03 01:45:07;;;;;;;3.67;1.55;;;17.20;99.90;;;;;;5050830;28;20029;-85
2021/10/03 01:47:33;;;;;;;3.40;1.52;;;17.10;99.90;;;;;;5050424;28;20117;-85
2021/10/03 01:49:58;;;;;;;3.03;1.50;;;17.10;99.90;;;;;;5050015;28;20111;-86
2021/10/03 01:52:24;;;;;;;3.33;1.60;;;17.10;99.90;;;;;;5050652;28;20021;-86
2021/10/03 01:54:50;;;;;;;5.70;1.65;;;17.20;99.90;;;;;;5050550;28;20385;-86
2021/10/03 01:57:15;;;;;;;2.30;1.52;;;17.20;99.90;;;;;;5050592;28;20482;-86
2021/10/03 01:59:41;;;;;;;2.88;1.52;;;17.20;99.90;;;;;;5049886;28;20478;-86
2021/10/03 02:02:07;;;;;;;3.92;1.58;;;17.20;99.90;;;;;;5050416;28;20091;-86
2021/10/03 02:04:34;;;;;;;3.20;1.55;;;17.30;99.90;;;;;;5050213;28;20025;-86
2021/10/03 02:07:01;;;;;;;3.83;1.73;;;17.30;99.90;;;;;;5051113;28;20098;-86
2021/10/03 02:09:28;;;;;;;2.70;1.63;;;17.30;99.90;;;;;;5050525;28;20474;-87
2021/10/03 02:11:59;;;;;;;4.78;2.00;;;17.30;99.90;;;;;;5050338;28;20104;-86
2021/10/03 02:14:30;;;;;;;3.30;1.90;;;17.40;99.90;;;;;;5051841;28;20021;-86
2021/10/03 02:17:01;;;;;;;5.70;1.60;;;17.40;99.90;;;;;;5050474;28;20031;-87
2021/10/03 02:19:28;;;;;;;2.90;1.90;;;17.50;99.90;;;;;;5049563;28;20043;-86
2021/10/03 02:21:55;;;;;;;6.00;1.73;;;17.50;99.90;;;;;;5050090;28;20029;-86
2021/10/03 02:24:20;;;;;;;3.33;1.52;;;17.40;99.90;;;;;;5050252;28;20025;-87
2021/10/03 02:26:46;;;;;;;3.75;1.83;;;17.40;99.90;;;;;;5050435;28;20075;-86
2021/10/03 02:29:12;;;;;;;3.55;2.00;;;17.30;99.90;;;;;;5049518;28;20036;-86
2021/10/03 02:31:37;;;;;;;4.57;1.80;;;17.30;99.90;;;;;;5050275;28;20420;-86
2021/10/03 02:34:04;;;;;;;3.03;1.92;;;17.30;99.90;;;;;;5051308;28;20025;-86
2021/10/03 02:36:29;;;;;;;2.60;1.42;;;17.30;99.90;;;;;;5050160;28;20029;-86
2021/10/03 02:38:55;;;;;;;2.50;1.70;;;17.40;99.90;;;;;;5049691;28;20551;-86
2021/10/03 02:41:22;;;;;;;3.15;1.50;;;17.40;99.90;;;;;;5050155;28;20025;-86
2021/10/03 02:43:51;;;;;;;4.75;2.10;;;17.40;99.90;;;;;;5050186;28;20029;-86
2021/10/03 02:46:19;;;;;;;3.08;2.00;;;17.30;99.90;;;;;;5049938;28;20071;-86
2021/10/03 02:48:50;;;;;;;3.92;1.90;;;17.30;99.90;;;;;;5051046;28;20029;-89
2021/10/03 02:51:21;;;;;;;3.58;1.85;;;17.30;99.90;;;;;;5054768;28;20021;-86
2021/10/03 02:53:47;;;;;;;4.07;1.95;;;17.20;99.90;;;;;;5055001;28;20021;-86
2021/10/03 02:56:15;;;;;;;4.00;1.70;;;17.20;99.90;;;;;;5053588;28;20260;-86
2021/10/03 02:58:40;;;;;;;4.80;2.80;;;17.20;99.90;;;;;;5053514;28;20025;-86
2021/10/03 03:01:06;;;;;;;4.20;2.20;;;17.20;99.90;;;;;;5053036;28;20433;-86
2021/10/03 03:03:33;;;;;;;4.78;1.98;;;17.20;99.90;;;;;;5053468;28;20036;-86
2021/10/03 03:05:59;;;;;;;4.45;2.20;;;17.10;99.90;;;;;;5054726;28;20104;-85
2021/10/03 03:08:24;;;;;;;5.40;2.10;;;17.20;99.90;;;;;;5053316;28;20554;-86
2021/10/03 03:10:50;;;;;;;6.78;2.75;;;17.20;99.90;;;;;;5054035;28;20355;-85
2021/10/03 03:13:16;;;;;;;3.30;2.17;;;17.10;99.90;;;;;;5053333;28;20021;-86
2021/10/03 03:15:41;;;;;;;3.50;1.95;;;17.00;99.90;;;;;;5053409;28;20028;-87
2021/10/03 03:18:07;;;;;;;4.78;2.38;;;17.00;99.90;;;;;;5054251;28;20456;-86
2021/10/03 03:20:33;;;;;;;4.57;2.45;;;17.00;99.90;;;;;;5052637;28;20029;-86
2021/10/03 03:22:58;;;;;;;3.97;2.75;;;16.90;99.90;;;;;;5053178;28;20031;-86
2021/10/03 03:25:24;;;;;;;5.95;2.63;;;16.90;99.90;;;;;;5054683;28;20033;-86
2021/10/03 03:27:50;;;;;;;6.18;2.85;;;16.90;99.90;;;;;;5053000;28;20033;-86
2021/10/03 03:30:16;;;;;;;4.95;2.72;;;16.80;99.90;;;;;;5053730;28;20032;-86
2021/10/03 03:32:42;;;;;;;5.10;2.80;;;16.80;99.90;;;;;;5052717;28;20120;-85
2021/10/03 03:35:09;;;;;;;4.57;2.85;;;16.70;99.90;;;;;;5052882;28;20053;-86
2021/10/03 03:37:34;;;;;;;4.68;2.78;;;16.70;99.90;;;;;;5052802;28;20595;-86
2021/10/03 03:40:00;;;;;;;4.95;2.50;;;16.70;99.90;;;;;;5052343;28;20115;-85
2021/10/03 03:42:26;;;;;;;6.20;3.05;;;16.70;99.90;;;;;;5053417;28;20481;-85
2021/10/03 03:44:52;;;;;;;5.80;2.85;;;16.80;99.90;;;;;;5053978;28;20405;-86
2021/10/03 03:47:17;;;;;;;4.32;2.67;;;16.70;99.90;;;;;;5054001;28;20619;-85
2021/10/03 03:49:43;;;;;;;4.50;2.75;;;16.70;99.90;;;;;;5054739;28;20066;-86
2021/10/03 03:52:10;;;;;;;4.80;2.80;;;16.70;99.90;;;;;;5053970;28;20531;-86
2021/10/03 03:54:35;;;;;;;4.95;3.15;;;16.70;99.90;;;;;;5053612;28;20102;-86
2021/10/03 03:57:01;;;;;;;8.13;3.00;;;16.70;99.90;;;;;;5052715;28;20439;-86
2021/10/03 03:59:29;;;;;;;5.05;2.67;;;16.70;99.90;;;;;;5053086;28;20060;-86
2021/10/03 04:01:54;;;;;;;5.45;3.25;;;16.70;99.90;;;;;;5052713;28;20025;-87
2021/10/03 04:04:20;;;;;;;5.03;3.30;;;16.70;99.90;;;;;;5052486;28;20110;-85
2021/10/03 04:06:46;;;;;;;4.88;2.63;;;16.80;99.90;;;;;;5052512;28;20029;-86
2021/10/03 04:09:11;;;;;;;5.20;2.95;;;16.80;99.90;;;;;;5052807;28;20029;-86
2021/10/03 04:11:37;;;;;;;5.47;2.90;;;16.80;99.90;;;;;;5052361;28;20484;-86
2021/10/03 04:14:02;;;;;;;5.82;2.72;;;16.90;99.90;;;;;;5052270;28;20028;-85
2021/10/03 04:16:28;;;;;;;4.85;3.03;;;16.80;99.90;;;;;;5052094;28;20493;-86
2021/10/03 04:18:54;;;;;;;6.35;3.40;;;16.90;99.90;;;;;;5053048;28;20037;-86
2021/10/03 04:21:19;;;;;;;5.85;3.10;;;16.90;99.90;;;;;;5053272;28;20120;-85
2021/10/03 04:23:45;;;;;;;5.65;3.22;;;16.90;99.90;;;;;;5052046;28;20037;-86
2021/10/03 04:26:10;;;;;;;5.22;3.63;;;17.00;99.90;;;;;;5053438;28;20127;-86
2021/10/03 04:28:36;;;;;;;7.07;3.85;;;17.00;99.90;;;;;;5051730;28;20483;-86
2021/10/03 04:31:02;;;;;;;5.72;3.20;;;17.00;99.90;;;;;;5051267;28;20028;-86
2021/10/03 04:33:27;;;;;;;6.75;3.83;;;17.00;99.90;;;;;;5051847;28;20067;-85
2021/10/03 04:35:53;;;;;;;4.63;3.25;;;17.00;99.90;;;;;;5051930;28;20080;-86
2021/10/03 04:38:19;;;;;;;5.60;3.80;;;16.90;99.90;;;;;;5053133;28;20029;-86
2021/10/03 04:40:44;;;;;;;5.97;3.58;;;17.00;99.90;;;;;;5051361;28;20398;-87
2021/10/03 04:43:10;;;;;;;6.10;3.47;;;17.00;99.90;;;;;;5051613;28;20060;-87
2021/10/03 04:45:36;;;;;;;5.60;3.72;;;17.10;99.90;;;;;;5052859;28;20033;-87
2021/10/03 04:48:02;;;;;;;5.10;3.50;;;17.20;99.90;;;;;;5052721;28;20025;-85
2021/10/03 04:50:28;;;;;;;6.97;3.90;;;17.20;99.90;;;;;;5050942;28;20025;-86
2021/10/03 04:52:54;;;;;;;6.72;3.80;;;17.20;99.90;;;;;;5051465;28;20036;-86
2021/10/03 04:55:20;;;;;;;5.88;3.60;;;17.20;99.90;;;;;;5051327;28;20033;-87
2021/10/03 04:57:47;;;;;;;8.30;4.03;;;17.20;99.90;;;;;;5051395;28;20040;-86
2021/10/03 05:00:13;;;;;;;6.30;3.88;;;17.20;99.90;;;;;;5050719;28;20040;-86
2021/10/03 05:02:39;;;;;;;6.15;4.05;;;17.20;99.90;;;;;;5052592;28;20402;-86
2021/10/03 05:05:05;;;;;;;8.75;3.97;;;17.20;99.90;;;;;;5052470;28;20033;-86
2021/10/03 05:07:31;;;;;;;7.18;3.83;;;17.20;99.90;;;;;;5052573;28;20037;-86
2021/10/03 05:09:56;;;;;;;6.82;3.78;;;17.20;99.90;;;;;;5051934;28;20573;-86
2021/10/03 05:12:22;;;;;;;8.13;4.55;;;17.20;99.90;;;;;;5052089;28;20029;-87
2021/10/03 05:14:47;;;;;;;7.82;4.20;;;17.30;99.90;;;;;;5051275;28;20083;-86
2021/10/03 05:17:13;;;;;;;9.18;4.30;;;17.30;99.90;;;;;;5051125;28;20025;-86
2021/10/03 05:19:39;;;;;;;6.60;4.05;;;17.30;99.90;;;;;;5050307;28;20690;-86
2021/10/03 05:22:05;;;;;;;6.45;4.10;;;17.30;99.90;;;;;;5050929;28;20028;-86
2021/10/03 05:24:32;;;;;;;9.85;4.80;;;17.30;99.90;;;;;;5050998;28;20067;-86
2021/10/03 05:26:58;;;;;;;9.85;4.45;;;17.30;99.90;;;;;;5050891;28;20036;-86
2021/10/03 05:29:23;;;;;;;8.55;5.20;;;17.30;99.90;;;;;;5050023;28;20029;-86
2021/10/03 05:31:49;;;;;;;6.35;4.30;;;17.40;99.90;;;;;;5052057;28;20060;-86
2021/10/03 05:34:15;;;;;;;9.38;4.57;;;17.40;99.90;;;;;;5050943;28;20021;-87
2021/10/03 05:36:40;;;;;;;6.82;4.57;;;17.40;99.90;;;;;;5050874;28;20060;-85
2021/10/03 05:39:06;;;;;;;8.52;4.68;;;17.40;99.90;;;;;;5050213;28;20029;-86
2021/10/03 05:41:32;;;;;;;8.00;4.28;;;17.40;99.90;;;;;;5050634;28;20029;-86
2021/10/03 05:43:58;;;;;;;6.00;4.00;;;17.30;99.90;;;;;;5050580;28;20033;-86
2021/10/03 05:46:24;;;;;;;7.65;5.15;;;17.30;99.90;;;;;;5050753;28;20079;-86
2021/10/03 05:48:50;;;;;;;7.47;5.20;;;17.30;99.90;;;;;;5050243;28;20029;-86
2021/10/03 05:51:15;;;;;;;8.02;4.60;;;17.30;99.90;;;;;;5051646;28;20021;-86
2021/10/03 05:53:41;;;;;;;9.55;5.05;;;17.30;99.90;;;;;;5051810;28;20032;-87
2021/10/03 05:56:07;;;;;;;8.10;4.50;;;17.30;99.90;;;;;;5050706;28;20032;-87
2021/10/03 05:58:33;;;;;;;7.35;4.65;;;17.30;99.90;;;;;;5050476;28;20024;-86
2021/10/03 06:01:00;;;;;;;7.75;4.57;;;17.30;99.90;;;;;;5051296;28;20021;-86
2021/10/03 06:03:25;;;;;;;6.03;4.22;;;17.20;99.90;;;;;;5052005;28;20092;-86
2021/10/03 06:05:51;;;;;;;8.93;5.00;;;17.20;99.90;;;;;;5051766;28;20029;-85
2021/10/03 06:08:16;;;;;;;6.72;4.75;;;17.20;99.90;;;;;;5050547;28;20056;-86
2021/10/03 06:10:43;;;;;;;12.05;6.38;;;17.20;99.90;;;;;;5051327;28;20033;-86
2021/10/03 06:13:09;;;;;;;10.45;6.25;;;17.20;99.90;;;;;;5050442;28;20140;-86
2021/10/03 06:15:37;;;;;;;10.65;5.43;;;17.10;99.90;;;;;;5050492;28;20064;-86
2021/10/03 06:18:03;;;;;;;7.87;5.07;;;17.10;99.90;;;;;;5051430;28;20044;-86
2021/10/03 06:20:28;;;;;;;7.07;5.05;;;17.10;99.90;;;;;;5050066;28;20406;-86
2021/10/03 06:22:54;;;;;;;9.85;5.43;;;17.10;99.90;;;;;;5050191;28;20036;-86
2021/10/03 06:25:20;;;;;;;7.82;5.22;;;17.10;99.90;;;;;;5053020;28;20037;-87
2021/10/03 06:27:46;;;;;;;10.27;6.20;;;17.00;99.90;;;;;;5055743;28;20124;-86
2021/10/03 06:30:12;;;;;;;10.77;5.75;;;17.00;99.90;;;;;;5053634;28;20029;-85
2021/10/03 06:32:38;;;;;;;7.65;5.35;;;17.00;99.90;;;;;;5053802;28;20025;-85
2021/10/03 06:35:05;;;;;;;9.25;5.18;;;17.00;99.90;;;;;;5054146;28;20029;-85
2021/10/03 06:37:30;;;;;;;10.32;5.60;;;17.00;99.90;;;;;;5053942;28;20025;-85
2021/10/03 06:39:57;;;;;;;8.32;5.20;;;17.00;99.90;;;;;;5053584;28;20394;-87
2021/10/03 06:42:22;;;;;;;9.20;5.25;;;17.00;99.90;;;;;;5053822;28;20036;-86
2021/10/03 06:44:48;;;;;;;9.40;5.72;;;17.00;99.90;;;;;;5055697;28;20025;-85
2021/10/03 06:47:14;;;;;;;10.88;5.93;;;17.00;99.90;;;;;;5054293;28;20109;-85
2021/10/03 06:49:40;;;;;;;10.90;6.00;;;16.90;99.90;;;;;;5053313;28;20493;-86
2021/10/03 06:52:08;;;;;;;8.38;5.82;;;16.90;99.90;;;;;;5054082;28;20025;-86
2021/10/03 06:54:34;;;;;;;10.05;5.95;;;16.90;99.90;;;;;;5053600;28;20025;-85
2021/10/03 06:56:59;;;;;;;11.18;5.97;;;16.90;99.90;;;;;;5053699;28;20099;-86
2021/10/03 06:59:25;;;;;;;13.23;5.65;;;16.90;99.90;;;;;;5054370;28;20481;-86
2021/10/03 07:01:53;;;;;;;11.15;6.47;;;16.80;99.90;;;;;;5053833;28;20500;-86
2021/10/03 07:04:19;;;;;;;10.00;6.72;;;16.80;99.90;;;;;;5055039;28;20246;-86
2021/10/03 07:06:44;;;;;;;8.35;5.70;;;16.90;99.90;;;;;;5053776;28;20071;-86
2021/10/03 07:09:10;;;;;;;10.13;6.07;;;16.90;99.90;;;;;;5052931;28;20032;-85
2021/10/03 07:11:35;;;;;;;13.57;6.20;;;16.90;99.90;;;;;;5053759;28;20021;-86
2021/10/03 07:14:01;;;;;;;11.90;5.70;;;16.90;99.90;;;;;;5053674;28;20025;-86
2021/10/03 07:16:27;;;;;;;8.70;5.85;;;16.90;99.90;;;;;;5053533;28;20485;-85
2021/10/03 07:18:52;;;;;;;7.85;5.57;;;16.90;99.90;;;;;;5053796;28;20136;-85
2021/10/03 07:21:19;;;;;;;9.93;6.65;;;16.90;99.90;;;;;;5053732;28;20064;-85
2021/10/03 07:23:45;;;;;;;9.40;6.20;;;16.90;99.90;;;;;;5054609;28;20032;-85
2021/10/03 07:26:11;;;;;;;11.07;6.45;;;16.90;99.90;;;;;;5053653;28;20067;-86
2021/10/03 07:28:37;;;;;;;12.05;6.50;;;16.90;99.90;;;;;;5053261;28;20048;-86
2021/10/03 07:31:04;;;;;;;8.65;6.53;;;16.80;99.90;;;;;;5053029;28;20079;-85
2021/10/03 07:33:30;;;;;;;9.35;6.35;;;16.80;99.90;;;;;;5053507;28;20025;-85
2021/10/03 07:35:56;;;;;;;13.02;6.75;;;16.80;99.90;;;;;;5053583;28;20056;-86
2021/10/03 07:38:21;;;;;;;9.85;6.20;;;16.80;99.90;;;;;;5054812;28;20394;-86
2021/10/03 07:40:47;;;;;;;10.00;5.88;;;16.80;99.90;;;;;;5054277;28;20021;-86
2021/10/03 07:43:13;;;;;;;10.48;6.20;;;16.80;99.90;;;;;;5053538;28;20021;-85
2021/10/03 07:45:39;;;;;;;13.52;6.35;;;16.80;99.90;;;;;;5053594;28;20036;-85
2021/10/03 07:48:05;;;;;;;8.63;6.15;;;16.80;99.90;;;;;;5053244;28;20021;-86
2021/10/03 07:50:31;;;;;;;10.27;6.22;;;16.80;99.90;;;;;;5052833;28;20017;-85
2021/10/03 07:52:56;;;;;;;8.77;6.20;;;16.80;99.90;;;;;;5053394;28;20067;-85
2021/10/03 07:55:28;;;;;;;10.07;6.13;;;16.80;99.90;;;;;;5053219;28;20025;-85
2021/10/03 07:57:55;;;;;;;9.30;6.03;;;16.80;99.90;;;;;;5052683;28;20031;-86
2021/10/03 08:00:20;;;;;;;12.00;6.60;;;16.80;99.90;;;;;;5053525;28;20031;-85
2021/10/03 08:02:46;;;;;;;8.80;5.88;;;16.80;99.90;;;;;;5052707;28;20029;-85
2021/10/03 08:05:12;;;;;;;15.07;6.18;;;16.80;99.90;;;;;;5053995;28;20025;-86
2021/10/03 08:07:38;;;;;;;8.05;5.53;;;16.80;99.90;;;;;;5052641;28;20025;-84
2021/10/03 08:10:05;;;;;;;9.43;6.05;;;16.80;99.90;;;;;;5053319;28;20024;-86
2021/10/03 08:12:31;;;;;;;10.05;6.47;;;16.80;99.90;;;;;;5053943;28;20025;-86
2021/10/03 08:14:57;;;;;;;11.07;6.63;;;16.80;99.90;;;;;;5052827;28;20071;-85
2021/10/03 08:17:23;;;;;;;11.65;6.68;;;16.80;99.90;;;;;;5052790;28;20021;-86
2021/10/03 08:19:48;;;;;;;9.77;6.32;;;16.80;99.90;;;;;;5051768;28;20025;-84
2021/10/03 08:22:14;;;;;;;10.38;6.82;;;16.90;99.90;;;;;;5052150;28;20025;-85
2021/10/03 08:24:39;;;;;;;10.10;6.50;;;16.90;99.90;;;;;;5052596;28;20070;-85
2021/10/03 08:27:05;;;;;;;11.10;6.00;;;16.80;99.90;;;;;;5052306;28;20055;-86
2021/10/03 08:29:31;;;;;;;12.10;5.88;;;16.90;99.90;;;;;;5051284;28;20035;-85
2021/10/03 08:31:56;;;;;;;9.75;6.75;;;16.80;99.90;;;;;;5053194;28;20028;-86
2021/10/03 08:34:23;;;;;;;10.60;7.05;;;16.90;99.90;;;;;;5052154;28;20101;-86
2021/10/03 08:36:49;;;;;;;10.75;6.25;;;16.80;99.90;;;;;;5053118;28;20481;-85
2021/10/03 08:39:15;;;;;;;11.30;6.55;;;16.80;99.90;;;;;;5051282;28;20068;-86
2021/10/03 08:41:41;;;;;;;8.45;5.80;;;16.80;99.90;;;;;;5052029;28;20029;-86
2021/10/03 08:44:08;;;;;;;7.85;5.57;;;16.80;99.90;;;;;;5052892;28;20393;-85
2021/10/03 08:46:35;;;;;;;9.82;5.93;;;16.80;99.90;;;;;;5051599;28;20060;-86
2021/10/03 08:49:03;;;;;;;8.75;5.88;;;16.80;99.90;;;;;;5050675;28;20029;-85
2021/10/03 08:51:29;;;;;;;11.43;6.82;;;16.80;99.90;;;;;;5052351;28;20025;-86
2021/10/03 08:53:55;;;;;;;13.05;6.25;;;16.90;99.90;;;;;;5053951;28;20071;-85
2021/10/03 08:56:23;;;;;;;13.15;7.68;;;16.90;99.90;;;;;;5052587;28;20050;-86
2021/10/03 08:58:51;;;;;;;13.68;6.90;;;16.90;99.90;;;;;;5051008;28;20037;-86
2021/10/03 09:01:17;;;;;;;10.80;6.50;;;16.90;99.90;;;;;;5052455;28;20473;-86
2021/10/03 09:03:44;;;;;;;9.40;6.28;;;16.90;99.90;;;;;;5051478;28;20083;-86
2021/10/03 09:06:10;;;;;;;8.35;5.78;;;17.00;99.90;;;;;;5051288;28;20029;-85
2021/10/03 09:08:42;;;;;;;10.90;6.13;;;16.90;99.90;;;;;;5052556;28;20033;-87
2021/10/03 09:11:16;;;;;;;10.35;6.22;;;16.90;99.90;;;;;;5051970;28;20032;-85
2021/10/03 09:13:52;;;;;;;9.50;5.70;;;16.90;99.90;;;;;;5051319;28;20025;-85
2021/10/03 09:16:25;;;;;;;8.27;5.88;;;16.90;99.90;;;;;;5051138;28;20059;-86
2021/10/03 09:18:54;;;;;;;8.77;5.57;;;16.90;99.90;;;;;;5050679;28;20119;-86
2021/10/03 09:21:29;;;;;;;10.48;6.10;;;16.90;99.90;;;;;;5052551;28;20527;-86
2021/10/03 09:24:16;;;;;;;9.95;5.55;;;16.90;99.90;;;;;;5066277;28;20033;-86
2021/10/03 09:27:11;;;;;;;10.93;5.75;;;16.90;99.90;;;;;;5064309;28;20033;-85
2021/10/03 09:29:37;;;;;;;9.00;5.05;;;16.90;99.90;;;;;;5049354;28;20025;-85
2021/10/03 09:32:12;;;;;;;10.65;6.40;;;16.90;99.90;;;;;;5065502;28;20528;-85
2021/10/03 09:34:40;;;;;;;9.38;5.75;;;17.00;99.90;;;;;;5060440;28;20246;-85
2021/10/03 09:37:35;;;;;;;9.75;5.60;;;17.00;99.90;;;;;;5060541;28;20033;-85
2021/10/03 09:40:05;;;;;;;9.38;5.57;;;17.10;99.90;;;;;;5049592;28;20037;-86
2021/10/03 09:42:32;;;;;;;10.15;6.30;;;17.10;99.90;;;;;;5051345;28;20021;-85
2021/10/03 09:45:14;;;;;;;9.65;6.30;;;17.10;99.90;;;;;;5051118;28;20025;-85
2021/10/03 09:47:42;;;;;;;8.82;5.93;;;17.10;99.90;;;;;;5050685;28;20040;-86
2021/10/03 09:50:10;;;;;;;10.38;6.20;;;17.10;99.90;;;;;;5050415;28;20018;-85
2021/10/03 09:52:38;;;;;;;9.05;5.72;;;17.20;99.90;;;;;;5051175;28;20478;-85
2021/10/03 09:55:05;;;;;;;9.60;6.17;;;17.20;99.90;;;;;;5050670;28;20021;-86
2021/10/03 09:57:31;;;;;;;10.82;6.07;;;17.20;99.90;;;;;;5050419;28;20024;-84
2021/10/03 09:59:57;;;;;;;11.88;6.57;;;17.20;99.90;;;;;;5051957;28;20017;-85
2021/10/03 10:02:24;;;;;;;9.35;5.85;;;17.20;99.90;;;;;;5054629;28;20025;-85
2021/10/03 10:04:50;;;;;;;9.88;5.25;;;17.30;99.90;;;;;;5056253;28;20025;-86
2021/10/03 10:07:19;;;;;;;6.97;4.82;;;17.30;99.90;;;;;;5054653;28;20025;-85
2021/10/03 10:09:45;;;;;;;;;;;17.30;99.90;;;;;;5054260;28;20402;-86
2021/10/03 10:12:12;;;;;;;9.23;5.65;;;17.40;99.90;;;;;;5054629;28;19904;-85
2021/10/03 10:14:40;;;;;;;9.90;5.70;;;17.40;99.90;;;;;;5054456;28;20082;-85
2021/10/03 10:17:26;;;;;;;9.23;5.07;;;17.40;99.90;;;;;;5055794;28;20025;-86
2021/10/03 10:19:54;;;;;;;7.70;4.93;;;17.50;99.90;;;;;;5053554;28;20055;-85
2021/10/03 10:22:24;;;;;;;9.38;5.70;;;17.50;99.90;;;;;;5055594;28;20048;-86
2021/10/03 10:24:53;;;;;;;9.75;6.35;;;17.60;99.90;;;;;;5055621;28;20078;-85
2021/10/03 10:27:18;;;;;;;6.30;4.60;;;17.50;99.90;;;;;;5054553;28;20044;-85
2021/10/03 10:30:05;;;;;;;11.63;5.32;;;17.60;99.90;;;;;;5053399;28;20033;-85
2021/10/03 10:32:33;;;;;;;9.68;5.32;;;17.70;99.90;;;;;;5054571;28;20028;-86
2021/10/03 10:35:08;;;;;;;8.68;5.05;;;17.60;99.90;;;;;;5055036;28;20029;-86
2021/10/03 10:37:49;;;;;;;9.38;5.45;;;17.60;99.90;;;;;;5054540;28;20024;-86
2021/10/03 10:40:24;;;;;;;7.82;5.13;;;17.60;99.90;;;;;;5053864;28;20028;-85
2021/10/03 10:42:54;;;;;;;8.38;5.15;;;17.60;99.90;;;;;;5054637;28;20029;-85
2021/10/03 10:45:41;;;;;;;9.43;5.75;;;17.70;99.90;;;;;;5054353;28;20028;-86
2021/10/03 10:48:06;;;;;;;8.75;5.38;;;17.70;99.90;;;;;;5054040;28;20031;-85
2021/10/03 10:50:32;;;;;;;7.13;4.85;;;17.60;99.90;;;;;;5053816;28;20025;-85
2021/10/03 10:53:22;;;;;;;8.65;5.38;;;17.60;99.90;;;;;;5055437;28;20108;-85
2021/10/03 10:56:10;;;;;;;11.48;5.95;;;17.60;99.90;;;;;;5054274;28;20028;-84
2021/10/03 10:58:38;;;;;;;8.23;5.70;;;17.60;99.90;;;;;;5053560;28;20025;-85
2021/10/03 11:01:07;;;;;;;7.20;5.32;;;17.50;99.90;;;;;;5053186;28;20432;-85
2021/10/03 11:03:41;;;;;;;;;;;17.50;99.90;;;;;;5054185;28;20090;-85
2021/10/03 11:06:21;;;;;;;7.82;5.10;;;17.50;99.90;;;;;;5053705;28;19991;-86
2021/10/03 11:08:56;;;;;;;9.35;5.20;;;17.50;99.90;;;;;;5053519;28;20028;-83
2021/10/03 11:11:25;;;;;;;9.43;5.13;;;17.50;99.90;;;;;;5053150;28;20024;-86
2021/10/03 11:13:53;;;;;;;7.55;4.90;;;17.50;99.90;;;;;;5053597;28;20576;-85
2021/10/03 11:16:30;;;;;;;7.63;4.80;;;17.50;99.90;;;;;;5053709;28;20115;-85
2021/10/03 11:19:05;;;;;;;8.32;5.20;;;17.50;99.90;;;;;;5052676;28;20032;-85
2021/10/03 11:21:42;;;;;;;8.68;5.63;;;17.50;99.90;;;;;;5053161;28;20512;-86
2021/10/03 11:24:09;;;;;;;9.13;5.55;;;17.50;99.90;;;;;;5053152;28;20025;-86
2021/10/03 11:27:20;;;;;;;8.13;6.03;;;17.50;99.90;;;;;;5053325;28;20032;-86
2021/10/03 11:29:49;;;;;;;15.18;9.27;;;17.50;99.90;;;;;;5049707;28;20452;-86
2021/10/03 11:32:19;;;;;;;8.93;6.25;;;17.50;99.90;;;;;;5054639;28;20486;-85
2021/10/03 11:34:50;;;;;;;11.23;6.45;;;17.60;99.90;;;;;;5053406;28;20029;-85
2021/10/03 11:37:35;;;;;;;11.50;8.20;;;17.50;99.90;;;;;;5054502;28;20021;-86
2021/10/03 11:40:07;;;;;;;12.68;7.50;;;17.50;99.90;;;;;;5053836;28;20013;-86
2021/10/03 11:42:36;;;;;;;13.32;7.80;;;17.50;99.90;;;;;;5052885;28;20028;-86
2021/10/03 11:45:21;;;;;;;;;;;17.50;99.90;;;;;;5054899;28;20028;-86
2021/10/03 11:47:50;;;;;;;13.18;7.78;;;17.50;99.90;;;;;;5052356;28;19909;-87
2021/10/03 11:50:31;;;;;;;9.30;5.87;;;17.60;99.90;;;;;;5053719;28;20078;-87
2021/10/03 11:53:18;;;;;;;11.05;6.43;;;17.50;99.90;;;;;;5053133;28;20754;-86
2021/10/03 11:55:47;;;;;;;11.07;6.35;;;17.60;99.90;;;;;;5053837;28;20021;-86
2021/10/03 11:58:18;;;;;;;9.45;5.72;;;17.60;99.90;;;;;;5055113;28;20028;-85
2021/10/03 12:00:51;;;;;;;8.75;6.03;;;17.60;99.90;;;;;;5053081;28;20025;-87
2021/10/03 12:03:17;;;;;;;8.88;6.57;;;17.60;99.90;;;;;;5055435;28;20036;-85
2021/10/03 12:05:43;;;;;;;13.77;7.82;;;17.60;99.90;;;;;;5055018;28;20032;-85
2021/10/03 12:08:11;;;;;;;21.70;14.25;;;17.60;99.90;;;;;;5052986;28;20032;-85
2021/10/03 12:10:43;;;;;;;10.02;6.43;;;17.60;99.90;;;;;;5052105;28;20024;-86
2021/10/03 12:13:29;;;;;;;9.32;6.20;;;17.60;99.90;;;;;;5052531;28;20039;-85
2021/10/03 12:16:02;;;;;;;8.65;6.20;;;17.60;99.90;;;;;;5054093;28;20021;-85
2021/10/03 12:18:30;;;;;;;10.18;6.20;;;17.60;99.90;;;;;;5051965;28;20056;-86
2021/10/03 12:21:04;;;;;;;8.23;5.63;;;17.60;99.90;;;;;;5051864;28;20516;-86
2021/10/03 12:23:45;;;;;;;9.95;6.43;;;17.70;99.90;;;;;;5051867;28;20036;-86
2021/10/03 12:26:16;;;;;;;7.55;5.20;;;17.70;99.90;;;;;;5052616;28;20029;-86
2021/10/03 12:29:05;;;;;;;10.13;6.13;;;17.70;99.90;;;;;;5051977;28;20067;-86
2021/10/03 12:31:51;;;;;;;8.75;5.60;;;17.70;99.90;;;;;;5053431;28;20032;-86
2021/10/03 12:34:16;;;;;;;8.80;5.38;;;17.80;99.90;;;;;;5053165;28;20029;-86
2021/10/03 12:36:54;;;;;;;7.50;5.30;;;17.80;99.90;;;;;;5051936;28;20437;-85
2021/10/03 12:39:24;;;;;;;9.88;6.20;;;17.80;99.90;;;;;;5051193;28;20405;-86
2021/10/03 12:41:53;;;;;;;7.57;5.70;;;17.80;99.90;;;;;;5051836;28;20040;-86
2021/10/03 12:44:26;;;;;;;;;;;17.80;99.90;;;;;;5053639;28;20029;-85
2021/10/03 12:46:52;;;;;;;7.65;5.95;;;17.80;99.90;;;;;;5051653;28;19974;-86
2021/10/03 12:49:18;;;;;;;8.10;5.78;;;17.90;99.90;;;;;;5050922;28;20024;-85
2021/10/03 12:51:45;;;;;;;8.00;5.85;;;17.90;99.90;;;;;;5051541;28;20025;-86